Time;durP1;ratioP1;P1;durP2;ratioP2;P2;SDS_P1;SDS_P2;PMS_P1;PMS_P2;Temp;Humidity;BMP_temperature;BMP_pressure;BME280_temperature;BME280_humidity;BME280_pressure;Samples;Min_cycle;Max_cycle;Signal;HPM_P1;HPM_P2
2023/08/04 00:01:21;;;;;;;;;7.67;5.67;;;;;;;;5125057;27;45374;-74
2023/08/04 00:03:46;;;;;;;;;9.00;7.67;;;;;;;;5125400;27;45336;-74
2023/08/04 00:06:12;;;;;;;;;6.67;6.67;;;;;;;;5144077;27;45328;-74
2023/08/04 00:08:37;;;;;;;;;7.67;7.67;;;;;;;;5125523;27;45601;-74
2023/08/04 00:11:02;;;;;;;;;7.33;7.33;;;;;;;;5124840;27;45900;-75
2023/08/04 00:13:28;;;;;;;;;8.00;8.00;;;;;;;;5124942;27;47035;-75
2023/08/04 00:15:53;;;;;;;;;8.00;8.00;;;;;;;;5124924;27;45388;-75
2023/08/04 00:18:18;;;;;;;;;7.33;7.00;;;;;;;;5125294;27;45534;-74
2023/08/04 00:20:43;;;;;;;;;8.00;8.00;;;;;;;;5125051;27;45708;-75
2023/08/04 00:23:08;;;;;;;;;9.00;7.00;;;;;;;;5124970;27;45344;-75
2023/08/04 00:25:34;;;;;;;;;9.33;9.33;;;;;;;;5143741;27;45315;-75
2023/08/04 00:27:59;;;;;;;;;7.67;7.67;;;;;;;;5123448;27;45435;-75
2023/08/04 00:30:24;;;;;;;;;6.33;6.00;;;;;;;;5121097;27;45286;-74
2023/08/04 00:32:49;;;;;;;;;7.00;7.00;;;;;;;;5123958;27;47559;-75
2023/08/04 00:35:15;;;;;;;;;6.67;5.33;;;;;;;;5123710;27;45320;-74
2023/08/04 00:37:40;;;;;;;;;7.33;6.00;;;;;;;;5124896;27;45324;-74
2023/08/04 00:40:06;;;;;;;;;8.00;8.00;;;;;;;;5124795;27;45313;-75
2023/08/04 00:42:31;;;;;;;;;7.00;5.33;;;;;;;;5143023;27;46180;-74
2023/08/04 00:44:56;;;;;;;;;7.00;7.00;;;;;;;;5124518;27;45245;-74
2023/08/04 00:47:24;;;;;;;;;7.00;7.00;;;;;;;;5124772;27;45219;-75
2023/08/04 00:49:50;;;;;;;;;8.00;8.00;;;;;;;;5124394;27;45999;-74
2023/08/04 00:52:16;;;;;;;;;8.67;8.67;;;;;;;;5124384;27;46911;-74
2023/08/04 00:54:41;;;;;;;;;8.67;7.33;;;;;;;;5124408;27;45343;-75
2023/08/04 00:57:07;;;;;;;;;6.00;6.00;;;;;;;;5143511;27;45415;-74
2023/08/04 00:59:32;;;;;;;;;10.00;10.00;;;;;;;;5143218;27;45374;-74
2023/08/04 01:01:57;;;;;;;;;8.00;8.00;;;;;;;;5124117;27;48177;-75
2023/08/04 01:04:23;;;;;;;;;9.00;9.00;;;;;;;;5143080;27;45281;-74
2023/08/04 01:06:55;;;;;;;;;10.00;10.00;;;;;;;;5124274;27;45569;-74
2023/08/04 01:09:35;;;;;;;;;8.67;8.67;;;;;;;;5124111;27;45363;-75
2023/08/04 01:12:19;;;;;;;;;9.00;9.00;;;;;;;;5123974;27;46551;-74
2023/08/04 01:14:46;;;;;;;;;8.67;8.67;;;;;;;;5124147;27;45266;-74
2023/08/04 01:17:22;;;;;;;;;8.00;8.00;;;;;;;;5124352;27;45399;-74
2023/08/04 01:19:47;;;;;;;;;13.00;11.00;;;;;;;;5124093;27;45986;-74
2023/08/04 01:22:12;;;;;;;;;7.33;7.33;;;;;;;;5123357;27;46900;-74
2023/08/04 01:24:37;;;;;;;;;9.67;9.00;;;;;;;;5123434;27;45243;-75
2023/08/04 01:27:03;;;;;;;;;9.00;7.67;;;;;;;;5123197;27;45502;-74
2023/08/04 01:29:30;;;;;;;;;9.67;8.67;;;;;;;;5113111;27;45980;-74
2023/08/04 01:31:56;;;;;;;;;9.00;9.00;;;;;;;;5102846;27;46983;-75
2023/08/04 01:34:21;;;;;;;;;10.67;9.00;;;;;;;;5103144;27;45653;-74
2023/08/04 01:36:46;;;;;;;;;7.67;7.00;;;;;;;;5103361;27;45433;-74
2023/08/04 01:39:11;;;;;;;;;6.33;6.33;;;;;;;;5103199;27;46878;-74
2023/08/04 01:41:37;;;;;;;;;7.00;7.00;;;;;;;;5121545;27;46080;-75
2023/08/04 01:44:02;;;;;;;;;7.33;7.00;;;;;;;;5103235;27;45366;-75
2023/08/04 01:46:27;;;;;;;;;7.67;7.67;;;;;;;;5101758;27;45459;-74
2023/08/04 01:48:52;;;;;;;;;9.67;8.33;;;;;;;;5103054;27;45870;-74
2023/08/04 01:51:17;;;;;;;;;6.33;6.33;;;;;;;;5102571;27;45433;-74
2023/08/04 01:53:43;;;;;;;;;8.00;8.00;;;;;;;;5102858;27;45326;-74
2023/08/04 01:56:08;;;;;;;;;9.67;8.33;;;;;;;;5103237;27;45797;-75
2023/08/04 01:58:33;;;;;;;;;8.00;8.00;;;;;;;;5102580;27;46811;-74
2023/08/04 02:00:58;;;;;;;;;7.33;7.33;;;;;;;;5102613;27;45414;-74
2023/08/04 02:03:23;;;;;;;;;7.00;7.00;;;;;;;;5102665;27;45380;-74
2023/08/04 02:05:50;;;;;;;;;9.67;9.67;;;;;;;;5102736;27;45328;-74
2023/08/04 02:08:15;;;;;;;;;9.00;8.00;;;;;;;;5101780;27;45690;-74
2023/08/04 02:10:47;;;;;;;;;10.67;9.67;;;;;;;;5102659;27;45335;-74
2023/08/04 02:13:12;;;;;;;;;8.00;8.00;;;;;;;;5101384;27;45545;-75
2023/08/04 02:15:37;;;;;;;;;8.67;8.00;;;;;;;;5102458;27;45457;-74
2023/08/04 02:18:02;;;;;;;;;8.00;8.00;;;;;;;;5102546;27;45862;-74
2023/08/04 02:20:28;;;;;;;;;6.33;6.33;;;;;;;;5102455;27;46719;-75
2023/08/04 02:22:53;;;;;;;;;6.33;5.33;;;;;;;;5102425;27;45361;-74
2023/08/04 02:25:18;;;;;;;;;9.67;9.00;;;;;;;;5102686;27;45337;-74
2023/08/04 02:27:43;;;;;;;;;8.00;6.33;;;;;;;;5102467;27;46729;-74
2023/08/04 02:30:09;;;;;;;;;9.00;8.33;;;;;;;;5117930;27;45399;-74
2023/08/04 02:32:34;;;;;;;;;6.00;6.00;;;;;;;;5122936;27;45283;-74
2023/08/04 02:34:59;;;;;;;;;9.00;9.00;;;;;;;;5123050;27;45457;-74
2023/08/04 02:37:24;;;;;;;;;9.33;9.33;;;;;;;;5122815;27;45300;-74
2023/08/04 02:39:49;;;;;;;;;10.00;9.00;;;;;;;;5122945;27;45401;-75
2023/08/04 02:42:15;;;;;;;;;10.00;9.67;;;;;;;;5122773;27;45404;-74
2023/08/04 02:44:40;;;;;;;;;12.33;10.00;;;;;;;;5123096;27;45549;-74
2023/08/04 02:47:05;;;;;;;;;12.00;12.00;;;;;;;;5122585;27;46102;-74
2023/08/04 02:49:30;;;;;;;;;10.67;10.67;;;;;;;;5122841;27;47464;-75
2023/08/04 02:51:56;;;;;;;;;10.00;9.33;;;;;;;;5122878;27;45308;-74
2023/08/04 02:54:21;;;;;;;;;11.00;11.00;;;;;;;;5122850;27;45321;-74
2023/08/04 02:56:46;;;;;;;;;12.00;12.00;;;;;;;;5122799;27;45293;-75
2023/08/04 02:59:11;;;;;;;;;10.33;10.33;;;;;;;;5122776;27;47173;-74
2023/08/04 03:01:36;;;;;;;;;10.00;10.00;;;;;;;;5122446;27;45516;-75
2023/08/04 03:04:02;;;;;;;;;11.67;11.67;;;;;;;;5122881;27;45360;-75
2023/08/04 03:06:27;;;;;;;;;7.33;7.33;;;;;;;;5122459;27;45288;-75
2023/08/04 03:08:52;;;;;;;;;8.00;7.33;;;;;;;;5122591;27;46697;-74
2023/08/04 03:11:17;;;;;;;;;8.00;7.33;;;;;;;;5122539;27;45890;-75
2023/08/04 03:13:42;;;;;;;;;8.33;8.33;;;;;;;;5122649;27;45434;-74
2023/08/04 03:16:08;;;;;;;;;9.67;8.00;;;;;;;;5122296;27;46061;-74
2023/08/04 03:18:33;;;;;;;;;8.00;8.00;;;;;;;;5141153;27;45167;-75
2023/08/04 03:21:01;;;;;;;;;7.00;7.00;;;;;;;;5122341;27;45377;-74
2023/08/04 03:23:26;;;;;;;;;10.00;10.00;;;;;;;;5122659;27;45352;-74
2023/08/04 03:25:51;;;;;;;;;8.00;7.67;;;;;;;;5122318;27;46720;-75
2023/08/04 03:28:16;;;;;;;;;11.33;9.33;;;;;;;;5122327;27;46655;-75
2023/08/04 03:30:42;;;;;;;;;8.00;8.00;;;;;;;;5080959;27;45257;-74
2023/08/04 03:33:07;;;;;;;;;9.00;9.00;;;;;;;;5081492;27;45444;-75
2023/08/04 03:35:32;;;;;;;;;9.33;9.33;;;;;;;;5080955;27;46182;-74
2023/08/04 03:37:58;;;;;;;;;9.33;8.67;;;;;;;;5099670;27;47038;-74
2023/08/04 03:40:23;;;;;;;;;9.00;9.00;;;;;;;;5101271;27;45470;-75
2023/08/04 03:42:48;;;;;;;;;10.00;10.00;;;;;;;;5100547;27;45255;-74
2023/08/04 03:45:13;;;;;;;;;9.67;9.33;;;;;;;;5101215;27;45501;-74
2023/08/04 03:47:39;;;;;;;;;13.00;13.00;;;;;;;;5104459;27;45550;-74
2023/08/04 03:50:05;;;;;;;;;10.33;10.33;;;;;;;;5104852;27;45371;-74
2023/08/04 03:52:30;;;;;;;;;13.00;11.00;;;;;;;;5104997;27;45380;-74
2023/08/04 03:54:56;;;;;;;;;12.33;12.33;;;;;;;;5104878;27;45934;-74
2023/08/04 03:57:21;;;;;;;;;10.33;10.00;;;;;;;;5104815;27;45289;-75
2023/08/04 03:59:47;;;;;;;;;11.33;11.33;;;;;;;;5104725;27;45320;-75
2023/08/04 04:02:12;;;;;;;;;10.33;10.33;;;;;;;;5104963;27;45246;-75
2023/08/04 04:04:37;;;;;;;;;13.67;10.67;;;;;;;;5093650;27;45789;-74
2023/08/04 04:07:03;;;;;;;;;11.33;11.00;;;;;;;;5083968;27;46829;-74
2023/08/04 04:09:28;;;;;;;;;11.00;10.00;;;;;;;;5083629;27;45277;-74
2023/08/04 04:11:53;;;;;;;;;12.00;12.00;;;;;;;;5084175;27;45184;-74
2023/08/04 04:14:18;;;;;;;;;11.00;11.00;;;;;;;;5083755;27;46054;-75
2023/08/04 04:16:43;;;;;;;;;11.00;11.00;;;;;;;;5083737;27;45475;-74
2023/08/04 04:19:09;;;;;;;;;13.33;12.67;;;;;;;;5084106;27;45343;-75
2023/08/04 04:21:34;;;;;;;;;12.00;11.00;;;;;;;;5084047;27;45394;-75
2023/08/04 04:23:59;;;;;;;;;14.00;12.00;;;;;;;;5084019;27;45264;-74
2023/08/04 04:26:24;;;;;;;;;12.00;11.00;;;;;;;;5102247;27;46015;-75
2023/08/04 04:28:50;;;;;;;;;11.33;11.33;;;;;;;;5111546;27;45333;-74
2023/08/04 04:31:15;;;;;;;;;13.00;12.67;;;;;;;;5125071;27;45506;-75
2023/08/04 04:33:40;;;;;;;;;10.67;10.67;;;;;;;;5124814;27;46857;-75
2023/08/04 04:36:05;;;;;;;;;9.67;9.00;;;;;;;;5124848;27;47132;-74
2023/08/04 04:38:30;;;;;;;;;11.00;10.00;;;;;;;;5124800;27;45746;-74
2023/08/04 04:40:56;;;;;;;;;8.67;8.67;;;;;;;;5124916;27;45271;-75
2023/08/04 04:43:21;;;;;;;;;13.00;13.00;;;;;;;;5115773;27;45824;-74
2023/08/04 04:45:50;;;;;;;;;12.33;12.00;;;;;;;;5103467;27;47122;-74
2023/08/04 04:48:16;;;;;;;;;15.00;15.00;;;;;;;;5103255;27;45411;-75
2023/08/04 04:50:41;;;;;;;;;15.00;14.00;;;;;;;;5103933;27;45332;-74
2023/08/04 04:53:06;;;;;;;;;12.33;12.00;;;;;;;;5103673;27;45468;-74
2023/08/04 04:55:31;;;;;;;;;12.33;12.33;;;;;;;;5103727;27;47898;-74
2023/08/04 04:57:57;;;;;;;;;11.33;11.33;;;;;;;;5102699;27;45266;-75
2023/08/04 05:00:22;;;;;;;;;13.00;12.33;;;;;;;;5103770;27;45314;-74
2023/08/04 05:02:47;;;;;;;;;13.67;13.00;;;;;;;;5103821;27;45793;-74
2023/08/04 05:05:12;;;;;;;;;14.33;11.67;;;;;;;;5103653;27;48113;-74
2023/08/04 05:07:38;;;;;;;;;16.33;14.00;;;;;;;;5103759;27;45608;-74
2023/08/04 05:10:03;;;;;;;;;14.67;14.00;;;;;;;;5103837;27;45343;-74
2023/08/04 05:12:28;;;;;;;;;16.33;16.33;;;;;;;;5103539;27;45272;-74
2023/08/04 05:14:53;;;;;;;;;15.67;12.33;;;;;;;;5103168;27;45333;-74
2023/08/04 05:17:18;;;;;;;;;13.67;13.67;;;;;;;;5103651;27;45229;-75
2023/08/04 05:19:44;;;;;;;;;14.00;14.00;;;;;;;;5103613;27;45350;-74
2023/08/04 05:22:09;;;;;;;;;13.00;13.00;;;;;;;;5103462;27;45705;-74
2023/08/04 05:24:34;;;;;;;;;14.00;14.00;;;;;;;;5103281;27;46394;-75
2023/08/04 05:27:00;;;;;;;;;14.00;14.00;;;;;;;;5103467;27;45260;-74
2023/08/04 05:29:25;;;;;;;;;16.00;15.00;;;;;;;;5113169;27;45357;-74
2023/08/04 05:31:51;;;;;;;;;13.00;12.67;;;;;;;;5123820;27;45777;-75
2023/08/04 05:34:16;;;;;;;;;13.67;13.33;;;;;;;;5123876;27;46215;-74
2023/08/04 05:36:41;;;;;;;;;14.00;13.33;;;;;;;;5123795;27;45301;-75
2023/08/04 05:39:06;;;;;;;;;11.33;11.33;;;;;;;;5124094;27;45312;-75
2023/08/04 05:41:31;;;;;;;;;16.33;14.67;;;;;;;;5123619;27;45440;-74
2023/08/04 05:43:57;;;;;;;;;15.33;15.33;;;;;;;;5123814;27;46716;-74
2023/08/04 05:46:22;;;;;;;;;18.00;18.00;;;;;;;;5123577;27;45316;-74
2023/08/04 05:48:47;;;;;;;;;16.33;16.33;;;;;;;;5123961;27;45330;-75
2023/08/04 05:51:14;;;;;;;;;19.00;16.67;;;;;;;;5123280;27;46866;-75
2023/08/04 05:53:39;;;;;;;;;17.00;16.67;;;;;;;;5123573;27;46797;-74
2023/08/04 05:56:04;;;;;;;;;18.00;16.33;;;;;;;;5123520;27;45316;-74
2023/08/04 05:58:30;;;;;;;;;17.67;16.00;;;;;;;;5123735;27;45316;-74
2023/08/04 06:00:55;;;;;;;;;19.33;18.67;;;;;;;;5123225;27;45316;-75
2023/08/04 06:03:20;;;;;;;;;18.00;17.00;;;;;;;;5106275;27;47325;-74
2023/08/04 06:05:45;;;;;;;;;18.00;18.00;;;;;;;;5123325;27;45843;-74
2023/08/04 06:08:11;;;;;;;;;19.00;17.00;;;;;;;;5123743;27;45624;-74
2023/08/04 06:10:36;;;;;;;;;15.67;15.67;;;;;;;;5122892;27;46768;-74
2023/08/04 06:13:02;;;;;;;;;17.67;17.33;;;;;;;;5123270;27;47901;-74
2023/08/04 06:15:27;;;;;;;;;16.00;15.33;;;;;;;;5122999;27;45589;-74
2023/08/04 06:17:53;;;;;;;;;19.67;18.67;;;;;;;;5123484;27;45332;-74
2023/08/04 06:20:18;;;;;;;;;18.67;18.33;;;;;;;;5123123;27;45953;-74
2023/08/04 06:22:46;;;;;;;;;18.33;18.33;;;;;;;;5123212;27;45355;-75
2023/08/04 06:25:11;;;;;;;;;17.33;17.33;;;;;;;;5123260;27;45297;-74
2023/08/04 06:27:36;;;;;;;;;18.00;18.00;;;;;;;;5123292;27;45419;-74
2023/08/04 06:30:02;;;;;;;;;19.00;19.00;;;;;;;;5107870;27;47137;-74
2023/08/04 06:32:27;;;;;;;;;16.33;16.33;;;;;;;;5102313;27;47107;-75
2023/08/04 06:34:52;;;;;;;;;16.33;16.33;;;;;;;;5102275;27;45373;-74
2023/08/04 06:37:18;;;;;;;;;19.00;18.67;;;;;;;;5102422;27;45379;-74
2023/08/04 06:39:43;;;;;;;;;19.33;18.67;;;;;;;;5102206;27;45319;-74
2023/08/04 06:42:08;;;;;;;;;17.00;17.00;;;;;;;;5098607;27;47067;-74
2023/08/04 06:44:34;;;;;;;;;17.33;17.33;;;;;;;;5098518;27;45342;-74
2023/08/04 06:46:59;;;;;;;;;20.33;20.00;;;;;;;;5098954;27;45408;-74
2023/08/04 06:49:24;;;;;;;;;19.33;18.33;;;;;;;;5098807;27;46060;-74
2023/08/04 06:51:49;;;;;;;;;19.67;19.00;;;;;;;;5098447;27;48463;-74
2023/08/04 06:54:15;;;;;;;;;17.00;17.00;;;;;;;;5098542;27;45366;-76
2023/08/04 06:56:40;;;;;;;;;20.00;18.00;;;;;;;;5098932;27;45334;-75
2023/08/04 06:59:05;;;;;;;;;19.00;19.00;;;;;;;;5098643;27;47122;-75
2023/08/04 07:01:30;;;;;;;;;20.67;20.00;;;;;;;;5098299;27;47007;-75
2023/08/04 07:03:56;;;;;;;;;18.00;16.00;;;;;;;;5098512;27;45415;-75
2023/08/04 07:06:21;;;;;;;;;22.67;22.67;;;;;;;;5098733;27;45578;-76
2023/08/04 07:08:46;;;;;;;;;24.67;23.00;;;;;;;;5098418;27;45409;-75
2023/08/04 07:11:13;;;;;;;;;20.67;20.00;;;;;;;;5098624;27;45443;-75
2023/08/04 07:13:38;;;;;;;;;18.00;17.00;;;;;;;;5098455;27;45235;-75
2023/08/04 07:16:03;;;;;;;;;22.00;20.67;;;;;;;;5099795;27;45322;-75
2023/08/04 07:18:28;;;;;;;;;20.00;19.00;;;;;;;;5098314;27;46225;-76
2023/08/04 07:21:02;;;;;;;;;21.00;20.00;;;;;;;;5099999;27;45945;-75
2023/08/04 07:23:27;;;;;;;;;19.00;19.00;;;;;;;;5101863;27;45349;-76
2023/08/04 07:25:55;;;;;;;;;19.00;19.00;;;;;;;;5102049;27;45372;-75
2023/08/04 07:28:20;;;;;;;;;21.00;21.00;;;;;;;;5070861;27;45547;-75
2023/08/04 07:30:45;;;;;;;;;22.33;19.67;;;;;;;;5101518;27;46777;-74
2023/08/04 07:33:10;;;;;;;;;21.00;19.00;;;;;;;;5101784;27;45239;-74
2023/08/04 07:35:35;;;;;;;;;18.67;18.33;;;;;;;;5101711;27;45290;-75
2023/08/04 07:38:01;;;;;;;;;16.33;16.33;;;;;;;;5101782;27;46164;-75
2023/08/04 07:40:26;;;;;;;;;17.00;17.00;;;;;;;;5105814;27;48109;-76
2023/08/04 07:42:51;;;;;;;;;13.67;13.00;;;;;;;;5125821;27;45363;-75
2023/08/04 07:45:16;;;;;;;;;18.67;16.67;;;;;;;;5125666;27;45314;-75
2023/08/04 07:47:42;;;;;;;;;19.00;17.00;;;;;;;;5125701;27;45496;-74
2023/08/04 07:50:08;;;;;;;;;21.00;19.00;;;;;;;;5108350;27;46368;-75
2023/08/04 07:52:33;;;;;;;;;18.67;18.00;;;;;;;;5125433;27;45332;-74
2023/08/04 07:54:58;;;;;;;;;18.00;16.67;;;;;;;;5125691;27;45360;-75
2023/08/04 07:57:24;;;;;;;;;20.00;19.33;;;;;;;;5125410;27;46698;-75
2023/08/04 07:59:49;;;;;;;;;19.67;18.33;;;;;;;;5125182;27;47185;-75
2023/08/04 08:02:15;;;;;;;;;19.33;18.00;;;;;;;;5125599;27;45741;-75
2023/08/04 08:04:40;;;;;;;;;18.33;16.00;;;;;;;;5125464;27;45371;-75
2023/08/04 08:07:05;;;;;;;;;17.00;16.00;;;;;;;;5125295;27;46217;-75
2023/08/04 08:09:30;;;;;;;;;19.33;19.33;;;;;;;;5125175;27;46293;-75
2023/08/04 08:11:56;;;;;;;;;19.33;18.33;;;;;;;;5125287;27;45369;-75
2023/08/04 08:14:21;;;;;;;;;16.67;16.33;;;;;;;;5125277;27;45371;-75
2023/08/04 08:16:46;;;;;;;;;20.00;18.00;;;;;;;;5125043;27;45351;-75
2023/08/04 08:19:12;;;;;;;;;18.00;18.00;;;;;;;;5143950;27;45562;-74
2023/08/04 08:21:40;;;;;;;;;19.33;18.67;;;;;;;;5125111;27;45311;-75
2023/08/04 08:24:05;;;;;;;;;19.00;18.67;;;;;;;;5125096;27;45380;-75
2023/08/04 08:26:30;;;;;;;;;19.00;19.00;;;;;;;;5125124;27;46634;-75
2023/08/04 08:28:55;;;;;;;;;18.67;18.00;;;;;;;;5119084;27;46779;-75
2023/08/04 08:31:21;;;;;;;;;17.67;17.67;;;;;;;;5104132;27;45594;-75
2023/08/04 08:33:46;;;;;;;;;18.00;18.00;;;;;;;;5103995;27;45263;-75
2023/08/04 08:36:11;;;;;;;;;20.00;17.33;;;;;;;;5104286;27;46213;-74
2023/08/04 08:38:36;;;;;;;;;20.33;19.00;;;;;;;;5104093;27;46781;-75
2023/08/04 08:41:02;;;;;;;;;18.67;18.00;;;;;;;;5103900;27;45404;-75
2023/08/04 08:43:27;;;;;;;;;17.67;15.33;;;;;;;;5104319;27;45272;-74
2023/08/04 08:45:55;;;;;;;;;17.33;16.00;;;;;;;;5103911;27;45543;-75
2023/08/04 08:48:20;;;;;;;;;15.00;15.00;;;;;;;;5103967;27;46209;-76
2023/08/04 08:50:50;;;;;;;;;12.67;12.67;;;;;;;;5103675;27;45322;-74
2023/08/04 08:53:20;;;;;;;;;15.67;14.00;;;;;;;;5122596;27;45192;-74
2023/08/04 08:55:47;;;;;;;;;17.67;15.67;;;;;;;;5103811;27;45833;-74
2023/08/04 08:58:12;;;;;;;;;13.33;13.00;;;;;;;;5103913;27;46876;-75
2023/08/04 09:00:38;;;;;;;;;15.00;13.33;;;;;;;;5103406;27;45362;-74
2023/08/04 09:03:04;;;;;;;;;12.33;11.00;;;;;;;;5104109;27;45482;-74
2023/08/04 09:05:32;;;;;;;;;15.67;14.67;;;;;;;;5103452;27;45778;-74
2023/08/04 09:07:57;;;;;;;;;14.33;13.33;;;;;;;;5103684;27;47692;-74
2023/08/04 09:10:23;;;;;;;;;14.00;14.00;;;;;;;;5103464;27;45313;-75
2023/08/04 09:12:50;;;;;;;;;15.33;14.33;;;;;;;;5103808;27;45263;-75
2023/08/04 09:15:16;;;;;;;;;14.00;14.00;;;;;;;;5103390;27;47448;-75
2023/08/04 09:17:41;;;;;;;;;13.67;13.33;;;;;;;;5103508;27;46929;-75
2023/08/04 09:20:07;;;;;;;;;13.00;13.00;;;;;;;;5103543;27;45196;-75
2023/08/04 09:22:37;;;;;;;;;14.33;12.33;;;;;;;;5103634;27;45349;-75
2023/08/04 09:25:03;;;;;;;;;13.67;12.00;;;;;;;;5103335;27;47371;-75
2023/08/04 09:27:37;;;;;;;;;13.00;13.00;;;;;;;;5103267;27;47902;-76
2023/08/04 09:30:04;;;;;;;;;12.67;12.00;;;;;;;;5118009;27;45732;-75
2023/08/04 09:32:29;;;;;;;;;17.00;16.33;;;;;;;;5124007;27;45358;-75
2023/08/04 09:34:58;;;;;;;;;11.00;11.00;;;;;;;;5123652;27;46073;-74
2023/08/04 09:37:23;;;;;;;;;14.00;12.00;;;;;;;;5123762;27;46429;-75
2023/08/04 09:39:48;;;;;;;;;11.00;11.00;;;;;;;;5123678;27;45401;-74
2023/08/04 09:42:15;;;;;;;;;12.33;12.33;;;;;;;;5120156;27;45164;-75
2023/08/04 09:44:40;;;;;;;;;11.67;11.00;;;;;;;;5119141;27;46973;-75
2023/08/04 09:47:05;;;;;;;;;14.00;12.00;;;;;;;;5120073;27;47920;-75
2023/08/04 09:49:31;;;;;;;;;12.00;11.00;;;;;;;;5120233;27;45164;-75
2023/08/04 09:51:56;;;;;;;;;14.33;12.67;;;;;;;;5120279;27;45268;-75
2023/08/04 09:54:21;;;;;;;;;11.33;11.33;;;;;;;;5120008;27;45601;-75
2023/08/04 09:56:47;;;;;;;;;10.00;10.00;;;;;;;;5120172;27;46743;-75
2023/08/04 09:59:13;;;;;;;;;11.67;11.33;;;;;;;;5120087;27;45516;-75
2023/08/04 10:01:40;;;;;;;;;10.50;10.50;;;;;;;;5108328;27;45360;-74
2023/08/04 10:04:06;;;;;;;;;12.00;12.00;;;;;;;;5098962;27;47515;-75
2023/08/04 10:06:33;;;;;;;;;13.33;11.67;;;;;;;;5098699;27;46956;-75
2023/08/04 10:08:58;;;;;;;;;11.67;11.67;;;;;;;;5099046;27;45524;-75
2023/08/04 10:11:23;;;;;;;;;9.67;9.67;;;;;;;;5099100;27;45362;-74
2023/08/04 10:13:51;;;;;;;;;12.00;12.00;;;;;;;;5098951;27;46410;-75
2023/08/04 10:16:18;;;;;;;;;9.33;9.33;;;;;;;;5100104;27;45316;-75
2023/08/04 10:18:51;;;;;;;;;10.67;10.00;;;;;;;;5099186;27;45456;-75
2023/08/04 10:21:16;;;;;;;;;9.00;9.00;;;;;;;;5098896;27;45243;-74
2023/08/04 10:23:42;;;;;;;;;11.50;11.50;;;;;;;;5098902;27;45372;-75
2023/08/04 10:26:10;;;;;;;;;10.50;10.00;;;;;;;;5099173;27;46895;-75
2023/08/04 10:28:55;;;;;;;;;9.00;9.00;;;;;;;;5101229;27;45348;-75
2023/08/04 10:31:20;;;;;;;;;7.25;7.25;;;;;;;;5119485;27;45270;-75
2023/08/04 10:34:05;;;;;;;;;9.00;9.00;;;;;;;;5119273;27;47065;-75
2023/08/04 10:36:50;;;;;;;;;8.33;8.00;;;;;;;;5119115;27;45404;-74
2023/08/04 10:39:29;;;;;;;;;8.67;8.67;;;;;;;;5119435;27;45316;-74
2023/08/04 10:41:55;;;;;;;;;8.33;8.33;;;;;;;;5119350;27;45278;-76
2023/08/04 10:44:23;;;;;;;;;11.33;10.33;;;;;;;;5119216;27;45264;-75
2023/08/04 10:46:48;;;;;;;;;13.33;11.33;;;;;;;;5118753;27;48168;-75
2023/08/04 10:49:13;;;;;;;;;9.50;9.50;;;;;;;;5119308;27;45916;-76
2023/08/04 10:51:39;;;;;;;;;10.33;10.33;;;;;;;;5119058;27;45289;-76
2023/08/04 10:54:04;;;;;;;;;8.33;8.33;;;;;;;;5119185;27;45282;-75
2023/08/04 10:56:29;;;;;;;;;8.00;8.00;;;;;;;;5122035;27;46471;-75
2023/08/04 10:58:55;;;;;;;;;7.25;7.25;;;;;;;;5123064;27;45398;-74
2023/08/04 11:01:21;;;;;;;;;10.50;9.25;;;;;;;;5119419;27;45436;-74
2023/08/04 11:03:47;;;;;;;;;8.00;8.00;;;;;;;;5094966;27;46165;-75
2023/08/04 11:06:12;;;;;;;;;9.33;9.33;;;;;;;;5102086;27;47885;-74
2023/08/04 11:08:38;;;;;;;;;11.33;11.33;;;;;;;;5102293;27;45337;-75
2023/08/04 11:11:05;;;;;;;;;9.25;9.25;;;;;;;;5101902;27;45323;-76
2023/08/04 11:13:30;;;;;;;;;10.75;9.75;;;;;;;;5101796;27;47125;-75
2023/08/04 11:15:56;;;;;;;;;9.00;8.50;;;;;;;;5101712;27;47558;-75
2023/08/04 11:18:26;;;;;;;;;7.00;7.00;;;;;;;;5102205;27;45853;-76
2023/08/04 11:20:51;;;;;;;;;4.25;4.25;;;;;;;;5102113;27;45408;-75
2023/08/04 11:23:27;;;;;;;;;6.00;5.50;;;;;;;;5102089;27;45550;-75
2023/08/04 11:25:52;;;;;;;;;4.50;4.00;;;;;;;;5101806;27;47880;-75
2023/08/04 11:28:19;;;;;;;;;4.75;3.75;;;;;;;;5103333;27;45232;-75
2023/08/04 11:30:44;;;;;;;;;5.00;5.00;;;;;;;;5122548;27;45347;-75
2023/08/04 11:33:09;;;;;;;;;6.67;6.00;;;;;;;;5122520;27;45766;-75
2023/08/04 11:35:34;;;;;;;;;5.75;4.75;;;;;;;;5097835;27;47716;-74
2023/08/04 11:38:00;;;;;;;;;4.50;4.00;;;;;;;;5089064;27;45322;-75
2023/08/04 11:40:26;;;;;;;;;5.00;5.00;;;;;;;;5103609;27;45319;-74
2023/08/04 11:42:52;;;;;;;;;4.75;4.75;;;;;;;;5104317;27;46794;-75
2023/08/04 11:45:17;;;;;;;;;6.50;6.00;;;;;;;;5104701;27;46896;-75
2023/08/04 11:47:43;;;;;;;;;7.25;7.25;;;;;;;;5104985;27;45352;-74
2023/08/04 11:50:08;;;;;;;;;8.33;7.00;;;;;;;;5104955;27;45299;-76
2023/08/04 11:52:37;;;;;;;;;7.67;7.67;;;;;;;;5104733;27;45475;-75
2023/08/04 11:55:03;;;;;;;;;9.00;8.00;;;;;;;;5104856;27;45430;-75
2023/08/04 11:57:29;;;;;;;;;9.00;9.00;;;;;;;;5104806;27;45367;-75
2023/08/04 11:59:54;;;;;;;;;9.00;9.00;;;;;;;;5104492;27;45293;-75
2023/08/04 12:02:19;;;;;;;;;11.00;11.00;;;;;;;;5104609;27;45900;-75
2023/08/04 12:04:44;;;;;;;;;10.33;10.33;;;;;;;;5104702;27;47494;-75
2023/08/04 12:07:11;;;;;;;;;13.00;12.00;;;;;;;;5103912;27;45266;-75
2023/08/04 12:09:36;;;;;;;;;10.00;10.00;;;;;;;;5104511;27;45513;-75
2023/08/04 12:12:02;;;;;;;;;10.00;10.00;;;;;;;;5104594;27;46646;-74
2023/08/04 12:14:28;;;;;;;;;12.00;11.00;;;;;;;;5103921;27;47397;-75
2023/08/04 12:16:57;;;;;;;;;12.67;11.00;;;;;;;;5103819;27;45400;-74
2023/08/04 12:19:24;;;;;;;;;11.33;10.00;;;;;;;;5104166;27;45378;-74
2023/08/04 12:21:53;;;;;;;;;10.00;10.00;;;;;;;;5103542;27;45424;-74
2023/08/04 12:24:18;;;;;;;;;11.00;10.67;;;;;;;;5104282;27;46855;-74
2023/08/04 12:26:44;;;;;;;;;8.67;8.67;;;;;;;;5103949;27;45495;-74
2023/08/04 12:29:09;;;;;;;;;11.33;10.00;;;;;;;;5106893;27;45339;-74
2023/08/04 12:31:35;;;;;;;;;11.00;10.67;;;;;;;;5104149;27;45403;-74
2023/08/04 12:34:00;;;;;;;;;11.33;11.33;;;;;;;;5103486;27;47658;-75
2023/08/04 12:36:26;;;;;;;;;12.33;11.67;;;;;;;;5103874;27;45367;-74
2023/08/04 12:38:51;;;;;;;;;7.67;7.67;;;;;;;;5103770;27;45389;-74
2023/08/04 12:41:16;;;;;;;;;7.00;7.00;;;;;;;;5103794;27;45661;-74
2023/08/04 12:43:41;;;;;;;;;6.00;6.00;;;;;;;;5103602;27;46499;-74
2023/08/04 12:46:06;;;;;;;;;7.00;5.67;;;;;;;;5103580;27;45309;-74
2023/08/04 12:48:32;;;;;;;;;6.33;6.33;;;;;;;;5103867;27;45320;-76
2023/08/04 12:50:57;;;;;;;;;3.00;3.00;;;;;;;;5103427;27;46789;-74
2023/08/04 12:53:22;;;;;;;;;4.00;4.00;;;;;;;;5103671;27;46934;-74
2023/08/04 12:55:48;;;;;;;;;5.00;4.00;;;;;;;;5122069;27;45283;-74
2023/08/04 12:58:13;;;;;;;;;2.75;2.75;;;;;;;;5103716;27;45439;-75
2023/08/04 13:00:38;;;;;;;;;4.50;3.25;;;;;;;;5102685;27;45844;-74
2023/08/04 13:03:03;;;;;;;;;4.75;4.75;;;;;;;;5121900;27;45991;-74
2023/08/04 13:05:28;;;;;;;;;3.75;3.00;;;;;;;;5102893;27;45240;-74
2023/08/04 13:07:56;;;;;;;;;2.00;2.00;;;;;;;;5105518;27;45311;-75
2023/08/04 13:10:21;;;;;;;;;2.00;2.00;;;;;;;;5113968;27;45680;-78
2023/08/04 13:12:46;;;;;;;;;2.00;2.00;;;;;;;;5103938;27;46716;-78
2023/08/04 13:15:12;;;;;;;;;3.00;3.00;;;;;;;;5103199;27;45409;-78
2023/08/04 13:17:37;;;;;;;;;5.75;4.75;;;;;;;;5103347;27;45343;-79
2023/08/04 13:20:03;;;;;;;;;4.00;4.00;;;;;;;;5097711;27;45945;-78
2023/08/04 13:22:28;;;;;;;;;3.25;3.25;;;;;;;;5102781;27;47771;-77
2023/08/04 13:24:53;;;;;;;;;8.67;8.33;;;;;;;;5122562;27;45387;-75
2023/08/04 13:27:18;;;;;;;;;5.00;5.00;;;;;;;;5119576;27;45455;-74
2023/08/04 13:29:46;;;;;;;;;4.00;4.00;;;;;;;;5115240;27;45911;-76
2023/08/04 13:32:11;;;;;;;;;5.00;5.00;;;;;;;;5123335;27;46948;-74
2023/08/04 13:34:36;;;;;;;;;3.00;3.00;;;;;;;;5123088;27;45376;-75
2023/08/04 13:37:02;;;;;;;;;5.67;5.67;;;;;;;;5123787;27;45317;-76
2023/08/04 13:39:27;;;;;;;;;6.75;5.25;;;;;;;;5123149;27;45664;-75
2023/08/04 13:41:52;;;;;;;;;5.00;4.00;;;;;;;;5123524;27;46466;-76
2023/08/04 13:44:17;;;;;;;;;3.75;3.75;;;;;;;;5123246;27;45230;-75
2023/08/04 13:46:42;;;;;;;;;2.00;2.00;;;;;;;;5123955;27;45253;-75
2023/08/04 13:49:07;;;;;;;;;2.50;2.50;;;;;;;;5123827;27;47042;-75
2023/08/04 13:51:33;;;;;;;;;3.50;3.50;;;;;;;;5123373;27;46977;-75
2023/08/04 13:53:58;;;;;;;;;3.25;3.25;;;;;;;;5123747;27;45287;-75
2023/08/04 13:56:23;;;;;;;;;5.50;4.50;;;;;;;;5142487;27;45310;-75
2023/08/04 13:58:50;;;;;;;;;4.00;4.00;;;;;;;;5123578;27;45323;-76
2023/08/04 14:01:15;;;;;;;;;5.00;3.50;;;;;;;;5123385;27;48212;-75
2023/08/04 14:03:40;;;;;;;;;4.00;4.00;;;;;;;;5123598;27;45317;-75
2023/08/04 14:06:05;;;;;;;;;4.00;4.00;;;;;;;;5123428;27;45316;-74
2023/08/04 14:08:30;;;;;;;;;4.00;4.00;;;;;;;;5103037;27;46753;-74
2023/08/04 14:10:56;;;;;;;;;3.50;3.00;;;;;;;;5101652;27;47683;-75
2023/08/04 14:13:21;;;;;;;;;5.00;5.00;;;;;;;;5101573;27;45289;-74
2023/08/04 14:15:47;;;;;;;;;3.50;3.50;;;;;;;;5099024;27;45386;-75
2023/08/04 14:18:12;;;;;;;;;4.75;4.75;;;;;;;;5102257;27;46247;-75
2023/08/04 14:20:37;;;;;;;;;5.00;5.00;;;;;;;;5113557;27;46552;-75